createdAt,value
2017-12-02T14:00:49.854Z,16.20
2017-12-02T14:03:17.466Z,18.63
2017-12-02T14:05:45.037Z,16.47
2017-12-02T14:08:12.654Z,14.93
2017-12-02T14:10:41.022Z,15.70
2017-12-02T14:13:09.128Z,14.90
2017-12-02T14:15:36.714Z,17.90
2017-12-02T14:18:04.451Z,15.63
2017-12-02T14:20:32.047Z,16.23
2017-12-02T14:22:59.643Z,14.93
2017-12-02T14:25:27.252Z,14.50
2017-12-02T14:27:56.035Z,16.17
2017-12-02T14:30:23.682Z,16.87
2017-12-02T14:32:51.336Z,15.93
2017-12-02T14:35:18.948Z,19.43
2017-12-02T14:37:46.547Z,14.00
2017-12-02T14:40:14.684Z,16.40
2017-12-02T14:42:42.404Z,15.80
2017-12-02T14:45:10.505Z,18.33
2017-12-02T14:47:38.142Z,20.87
2017-12-02T14:50:05.761Z,17.20
2017-12-02T14:52:33.343Z,15.87
2017-12-02T14:55:00.935Z,19.53
2017-12-02T14:57:28.524Z,17.47
2017-12-02T14:59:56.902Z,18.90
2017-12-02T15:02:24.504Z,23.53
2017-12-02T15:04:52.127Z,26.07
2017-12-02T15:07:19.732Z,24.80
2017-12-02T15:09:47.335Z,21.63
2017-12-02T15:12:15.714Z,17.77
2017-12-02T15:14:44.109Z,19.43
2017-12-02T15:17:11.686Z,16.67
2017-12-02T15:19:39.331Z,18.43
2017-12-02T15:22:06.916Z,21.23
2017-12-02T15:24:34.574Z,20.10
2017-12-02T15:27:02.156Z,18.30
2017-12-02T15:29:29.757Z,16.30
2017-12-02T15:31:57.376Z,19.90
2017-12-02T15:34:24.983Z,19.10
2017-12-02T15:36:52.607Z,15.40
2017-12-02T15:39:20.220Z,15.70
2017-12-02T15:41:47.806Z,19.57
2017-12-02T15:44:15.462Z,16.27
2017-12-02T15:46:43.081Z,15.10
2017-12-02T15:49:10.704Z,13.53
2017-12-02T15:51:38.305Z,16.40
2017-12-02T15:54:05.882Z,14.30
2017-12-02T15:56:33.507Z,15.53
2017-12-02T15:59:02.075Z,15.37
2017-12-02T16:01:30.459Z,16.20
2017-12-02T16:03:58.794Z,14.93
2017-12-02T16:06:26.401Z,14.83
2017-12-02T16:08:54.771Z,13.93
2017-12-02T16:11:22.391Z,14.87
2017-12-02T16:13:50.043Z,13.87
2017-12-02T16:16:17.646Z,14.83
2017-12-02T16:18:45.254Z,19.00
2017-12-02T16:21:12.871Z,22.13
2017-12-02T16:23:41.239Z,15.93
2017-12-02T16:26:09.673Z,22.30
2017-12-02T16:28:37.243Z,18.67
2017-12-02T16:31:04.893Z,22.77
2017-12-02T16:33:32.499Z,16.37
2017-12-02T16:36:00.104Z,16.70
2017-12-02T16:38:27.724Z,19.50
2017-12-02T16:40:55.336Z,19.97
2017-12-02T16:43:22.942Z,19.00
2017-12-02T16:45:50.570Z,19.00
2017-12-02T16:48:18.180Z,18.40
2017-12-02T16:50:46.542Z,17.10
2017-12-02T16:53:14.927Z,17.00
2017-12-02T16:55:42.525Z,19.40
2017-12-02T16:58:10.115Z,20.23
2017-12-02T17:00:37.736Z,22.73
2017-12-02T17:03:05.309Z,22.00
2017-12-02T17:05:32.909Z,21.37
2017-12-02T17:08:00.515Z,24.00
2017-12-02T17:10:28.094Z,24.30
2017-12-02T17:12:55.703Z,23.50
2017-12-02T17:15:23.271Z,25.53
2017-12-02T17:17:50.871Z,21.80
2017-12-02T17:20:18.450Z,18.90
2017-12-02T17:22:46.079Z,22.90
2017-12-02T17:25:13.682Z,21.10
2017-12-02T17:27:41.293Z,20.20
2017-12-02T17:30:08.879Z,20.63
2017-12-02T17:32:36.491Z,23.63
2017-12-02T17:35:04.093Z,21.13
2017-12-02T17:37:31.686Z,24.20
2017-12-02T17:39:59.286Z,25.50
2017-12-02T17:42:26.899Z,23.07
2017-12-02T17:44:54.494Z,22.60
2017-12-02T17:47:22.095Z,24.33
2017-12-02T17:49:49.697Z,23.63
2017-12-02T17:52:17.410Z,33.63
2017-12-02T17:54:44.998Z,25.23
2017-12-02T17:57:12.635Z,24.30
2017-12-02T17:59:40.239Z,23.70
2017-12-02T18:02:07.841Z,25.13
2017-12-02T18:04:35.451Z,25.70
2017-12-02T18:07:03.885Z,24.23
2017-12-02T18:09:31.469Z,26.07
2017-12-02T18:11:59.093Z,22.60
2017-12-02T18:14:26.671Z,23.73
2017-12-02T18:16:54.267Z,26.13
2017-12-02T18:19:21.879Z,27.67
2017-12-02T18:21:49.454Z,30.03
2017-12-02T18:24:17.053Z,27.07
2017-12-02T18:26:45.418Z,26.73
2017-12-02T18:29:13.031Z,28.27
2017-12-02T18:31:40.602Z,27.27
2017-12-02T18:34:08.240Z,26.97
2017-12-02T18:36:35.831Z,27.20
2017-12-02T18:39:03.454Z,27.10
2017-12-02T18:41:31.027Z,29.67
2017-12-02T18:43:59.430Z,26.90
2017-12-02T18:46:27.017Z,30.40
2017-12-02T18:48:55.465Z,29.90
2017-12-02T18:51:23.014Z,30.47
2017-12-02T18:53:50.621Z,30.07
2017-12-02T18:56:18.201Z,31.70
2017-12-02T18:58:46.593Z,31.43
2017-12-02T19:01:14.185Z,30.40
2017-12-02T19:03:41.817Z,31.50
2017-12-02T19:06:09.403Z,30.50
2017-12-02T19:08:37.044Z,30.83
2017-12-02T19:11:04.654Z,26.80
2017-12-02T19:13:32.798Z,30.40
2017-12-02T19:16:01.200Z,28.70
2017-12-02T19:18:29.566Z,27.90
2017-12-02T19:20:57.143Z,29.20
2017-12-02T19:23:25.558Z,27.70
2017-12-02T19:25:53.154Z,27.80
2017-12-02T19:28:20.758Z,27.90
2017-12-02T19:30:49.106Z,27.90
2017-12-02T19:33:16.682Z,27.63
2017-12-02T19:35:44.271Z,28.83
2017-12-02T19:38:11.846Z,28.87
2017-12-02T19:40:39.445Z,29.93
2017-12-02T19:43:07.031Z,29.73
2017-12-02T19:45:35.391Z,28.40
2017-12-02T19:48:03.739Z,29.20
2017-12-02T19:50:31.338Z,29.10
2017-12-02T19:52:58.906Z,27.10
2017-12-02T19:55:27.261Z,27.30
2017-12-02T19:57:54.844Z,26.20
2017-12-02T20:00:22.442Z,27.30
2017-12-02T20:02:50.027Z,28.37
2017-12-02T20:05:17.625Z,27.83
2017-12-02T20:07:45.207Z,27.10
2017-12-02T20:10:13.562Z,28.57
2017-12-02T20:12:41.130Z,27.37
2017-12-02T20:15:08.735Z,28.50
2017-12-02T20:17:36.323Z,32.20
2017-12-02T20:20:04.691Z,38.23
2017-12-02T20:22:32.276Z,33.37
2017-12-02T20:24:59.874Z,37.07
2017-12-02T20:27:27.441Z,31.63
2017-12-02T20:29:55.047Z,34.00
2017-12-02T20:32:23.416Z,29.30
2017-12-02T20:34:51.017Z,27.87
2017-12-02T20:37:18.596Z,30.03
2017-12-02T20:39:46.202Z,32.17
2017-12-02T20:42:14.542Z,30.40
2017-12-02T20:44:42.143Z,31.70
2017-12-02T20:47:10.489Z,30.77
2017-12-02T20:49:38.070Z,30.27
2017-12-02T20:52:06.435Z,32.40
2017-12-02T20:54:34.009Z,29.50
2017-12-02T20:57:02.378Z,26.30
2017-12-02T20:59:30.756Z,29.70
2017-12-02T21:01:59.123Z,27.53
2017-12-02T21:04:26.702Z,27.03
2017-12-02T21:06:54.318Z,25.10
2017-12-02T21:09:21.898Z,26.77
2017-12-02T21:11:49.493Z,26.73
2017-12-02T21:14:17.078Z,25.70
2017-12-02T21:16:44.674Z,22.23
2017-12-02T21:19:12.252Z,21.47
2017-12-02T21:21:40.613Z,20.27
2017-12-02T21:24:08.182Z,23.43
2017-12-02T21:26:35.781Z,20.27
2017-12-02T21:29:03.357Z,24.17
2017-12-02T21:31:30.950Z,20.50
2017-12-02T21:33:58.527Z,16.93
2017-12-02T21:36:26.894Z,21.00
2017-12-02T21:38:55.236Z,28.27
2017-12-02T21:41:22.830Z,30.17
2017-12-02T21:43:51.176Z,19.00
2017-12-02T21:46:18.774Z,16.03
2017-12-02T21:48:46.345Z,25.67
2017-12-02T21:51:13.943Z,25.13
2017-12-02T21:53:41.514Z,16.10
2017-12-02T21:56:09.115Z,18.60
2017-12-02T21:58:36.695Z,22.07
2017-12-02T22:01:04.296Z,17.97
2017-12-02T22:03:31.870Z,21.83
2017-12-02T22:05:59.437Z,21.40
2017-12-02T22:08:27.034Z,23.10
2017-12-02T22:10:54.610Z,19.93
2017-12-02T22:13:22.213Z,18.73
2017-12-02T22:15:49.828Z,18.83
2017-12-02T22:18:17.426Z,20.60
2017-12-02T22:20:45.002Z,22.43
2017-12-02T22:23:12.623Z,22.60
2017-12-02T22:25:40.214Z,24.00
2017-12-02T22:28:07.819Z,22.43
2017-12-02T22:30:35.395Z,24.30
2017-12-02T22:33:03.101Z,29.40
2017-12-02T22:35:30.670Z,28.80
2017-12-02T22:37:58.268Z,24.40
2017-12-02T22:40:25.851Z,22.40
2017-12-02T22:42:53.451Z,23.03
2017-12-02T22:45:21.792Z,26.10
2017-12-02T22:47:49.390Z,26.00
2017-12-02T22:50:16.967Z,20.83
2017-12-02T22:52:44.575Z,22.53
2017-12-02T22:55:12.154Z,26.53
2017-12-02T22:57:39.763Z,18.17
2017-12-02T23:00:07.335Z,18.37
2017-12-02T23:02:34.938Z,17.17
2017-12-02T23:05:03.288Z,16.97
2017-12-02T23:07:30.890Z,15.73
2017-12-02T23:09:58.469Z,17.43
2017-12-02T23:12:26.071Z,18.63
2017-12-02T23:14:53.652Z,25.63
2017-12-02T23:17:21.252Z,29.40
2017-12-02T23:19:48.822Z,22.17
2017-12-02T23:22:16.398Z,19.00
2017-12-02T23:24:43.999Z,17.53
2017-12-02T23:27:11.574Z,20.17
2017-12-02T23:29:39.178Z,19.57
2017-12-02T23:32:06.773Z,31.57
2017-12-02T23:34:35.134Z,25.80
2017-12-02T23:37:02.709Z,23.10
2017-12-02T23:39:31.079Z,23.50
2017-12-02T23:41:59.419Z,21.93
2017-12-02T23:44:27.026Z,23.43
2017-12-02T23:46:54.593Z,25.63
2017-12-02T23:49:22.184Z,28.30
2017-12-02T23:51:49.780Z,27.00
2017-12-02T23:54:17.369Z,23.93
2017-12-02T23:56:44.943Z,23.90
2017-12-02T23:59:12.570Z,37.97
